Aérodrome :
LOGIN :

S'inscrire | Disclaimer

   EN    FR    IT 

 










Légende :    VFR   VFR Marginal   IFR   IFR Intensif   IFR Très Intensif
Visi : 
Plafond : 
>= 8 km
>= 3000ft
5 à 8 km
1000 à 3000 ft
1500m à 5 km
500 à 1000 ft
800 à 1500m
200 à 500 ft
< 800m
< 200 ft
Symboles :   Orages  Brouillard  Fortes neiges  Fortes précipitations  Vent > 20 kt
SIGMETs :   Divers  Orages  Givrage  Turbulence  Onde Orograph.  Cendres Volcan.







- Altitude de l'aérodrome : 82 ft
- Code IATA : ALG


DAAG - Alger Houari Boumedienne

DERNIER METAR :
  • 210500Z 27002KT 9999 FEW030CB 19/18 Q1016

METARs EXPIRÉS :
  • 210430Z 00000KT CAVOK 19/17 Q1016
  • 210400Z 24001KT CAVOK 20/18 Q1016
  • 210330Z 20003KT CAVOK 20/18 Q1016
  • 210300Z 00000KT CAVOK 20/18 Q1016
  • 210230Z 20002KT CAVOK 21/18 Q1016

TAF TAF DAAG
Valide du 21 à 00h jusqu'au 22 à 00h UTC


202300Z 2100/2124 VRB02KT 9999 FEW020
PROB30
TEMPO 2107/2113 FEW023TCU FEW026CB
TEMPO 2113/2117 02010KT
Pas de NOTAMs connus pour ce terrain.
1 SIGMET publié pour la FIR Alger (DAAA) :
 
Orages noyés dans la masse
DAAA SIGMET 1 VALID 210330/210730 DAMM
DAAA ALGER FIR EMBD TS OBS E OF LINE N3741 E00722 - N3634 E00745 - TOP FL380 MOV E 20KT WKN=



MET'MAP, la Météo Aéronautique d'un coup d'oeil ! - Copyright ORBIFLY Décembre 2007 - Disclaimer

ORBIFLY MET'MAP TEAM :

Programmation & Développement : Alexandra Zaïnal
Conception & Développement : Baudouin d'Aumeries
Co-Programmation & Développement : Marc-Olivier Méhu
Soutien technique & logistique : Manuel Goepfert

Contact : metmap@orbifly.com




SOURCES & CREDITS :

   NOAA